Terminal Aerodrome Forecast
Issued by NWS

Home | Current Version | Previous Version | Graphics & Text | Print | Product List | Glossary On
Versions: 1 2 3 4 5 6 7 8 9 10 11 12 13 14 15 16 17
000
FTUS43 KBIS 261134
TAFMOT
TAF
KMOT 261134Z 2612/2712 05008KT P6SM VCSH OVC040
     FM261500 07010KT P6SM OVC025
     FM261900 08010G18KT P6SM OVC035
     FM270200 08007KT P6SM OVC035
     FM270800 05007KT P6SM OVC050=

USA.gov is the U.S. government's official web portal to all federal, state and local government web resources and services.